createdAt,value
2024-03-26T00:00:29.000Z,0
2024-03-26T00:01:44.000Z,0
2024-03-26T00:02:58.000Z,0
2024-03-26T00:04:12.000Z,0
2024-03-26T00:05:27.000Z,0
2024-03-26T00:06:40.000Z,0
2024-03-26T00:07:54.590Z,0
2024-03-26T00:09:08.000Z,0
2024-03-26T00:10:23.000Z,0
2024-03-26T00:11:37.000Z,0
2024-03-26T00:14:06.000Z,0
2024-03-26T00:15:20.000Z,0
2024-03-26T00:16:34.000Z,0
2024-03-26T00:17:48.000Z,0
2024-03-26T00:19:03.000Z,0
2024-03-26T00:20:17.000Z,0
2024-03-26T00:21:31.000Z,0
2024-03-26T00:22:46.000Z,0
2024-03-26T00:23:59.000Z,0
2024-03-26T00:25:13.000Z,0
2024-03-26T00:26:28.000Z,0
2024-03-26T00:27:42.000Z,0
2024-03-26T00:28:56.000Z,0
2024-03-26T00:30:10.000Z,0
2024-03-26T00:31:25.000Z,0
2024-03-26T00:32:39.000Z,0
2024-03-26T00:33:53.000Z,0
2024-03-26T00:35:08.000Z,0
2024-03-26T00:36:22.000Z,0
2024-03-26T00:37:36.640Z,0
2024-03-26T00:38:50.000Z,0
2024-03-26T00:40:05.000Z,0
2024-03-26T00:41:18.000Z,0
2024-03-26T00:42:32.000Z,0
2024-03-26T00:43:47.000Z,0
2024-03-26T00:45:01.431Z,0
2024-03-26T00:46:15.000Z,0
2024-03-26T00:47:30.000Z,0
2024-03-26T00:48:44.000Z,0
2024-03-26T00:49:58.593Z,0
2024-03-26T00:51:12.000Z,0
2024-03-26T00:52:27.000Z,0
2024-03-26T00:53:41.000Z,0
2024-03-26T00:54:55.000Z,0
2024-03-26T00:56:10.000Z,0
2024-03-26T00:57:23.367Z,0
2024-03-26T00:58:37.000Z,0
2024-03-26T00:59:51.000Z,0
2024-03-26T01:01:06.000Z,0
2024-03-26T01:02:20.000Z,0
2024-03-26T01:03:34.000Z,0
2024-03-26T01:04:49.000Z,0
2024-03-26T01:06:03.000Z,0
2024-03-26T01:07:17.000Z,0
2024-03-26T01:08:32.000Z,0
2024-03-26T01:09:46.292Z,0
2024-03-26T01:11:00.000Z,0
2024-03-26T01:13:29.000Z,0
2024-03-26T01:14:42.488Z,0
2024-03-26T01:15:56.000Z,0
2024-03-26T01:17:11.000Z,0
2024-03-26T01:18:25.000Z,0
2024-03-26T01:19:39.000Z,0
2024-03-26T01:20:53.000Z,0
2024-03-26T01:22:08.000Z,0
2024-03-26T01:23:22.000Z,0
2024-03-26T01:24:36.000Z,0
2024-03-26T01:25:51.000Z,0
2024-03-26T01:27:05.000Z,0
2024-03-26T01:28:19.000Z,0
2024-03-26T01:29:34.000Z,0
2024-03-26T01:30:47.000Z,0
2024-03-26T01:32:01.000Z,0
2024-03-26T01:33:15.000Z,0
2024-03-26T01:34:30.000Z,0
2024-03-26T01:35:44.000Z,0
2024-03-26T01:36:58.000Z,0
2024-03-26T01:38:13.000Z,0
2024-03-26T01:39:27.000Z,0
2024-03-26T01:40:41.000Z,0
2024-03-26T01:41:55.000Z,0
2024-03-26T01:43:10.000Z,0
2024-03-26T01:44:24.539Z,0
2024-03-26T01:45:38.000Z,0
2024-03-26T01:46:52.000Z,0
2024-03-26T01:48:06.000Z,0
2024-03-26T01:49:20.000Z,0
2024-03-26T01:50:35.000Z,0
2024-03-26T01:51:49.309Z,0
2024-03-26T01:53:03.000Z,0
2024-03-26T01:54:17.000Z,0
2024-03-26T01:55:32.000Z,0
2024-03-26T01:56:46.000Z,0
2024-03-26T01:58:00.000Z,0
2024-03-26T01:59:15.079Z,0
2024-03-26T02:00:29.000Z,0
2024-03-26T02:01:43.000Z,0
2024-03-26T02:02:56.000Z,0
2024-03-26T02:04:11.000Z,0
2024-03-26T02:05:25.000Z,0
2024-03-26T02:06:39.000Z,0
2024-03-26T02:07:54.000Z,0
2024-03-26T02:09:08.000Z,0
2024-03-26T02:10:22.000Z,0
2024-03-26T02:11:37.012Z,0
2024-03-26T02:12:51.000Z,0
2024-03-26T02:14:05.000Z,0
2024-03-26T02:15:19.000Z,0
2024-03-26T02:16:34.000Z,0
2024-03-26T02:17:48.000Z,0
2024-03-26T02:20:17.000Z,0
2024-03-26T02:21:30.391Z,0
2024-03-26T02:22:44.000Z,0
2024-03-26T02:23:58.000Z,0
2024-03-26T02:25:13.000Z,0
2024-03-26T02:26:27.558Z,0
2024-03-26T02:27:41.000Z,0
2024-03-26T02:28:56.000Z,0
2024-03-26T02:30:10.000Z,0
2024-03-26T02:31:24.000Z,0
2024-03-26T02:32:39.000Z,0
2024-03-26T02:33:53.000Z,0
2024-03-26T02:35:07.000Z,0
2024-03-26T02:36:21.887Z,0
2024-03-26T02:37:36.000Z,0
2024-03-26T02:38:50.000Z,0
2024-03-26T02:40:04.000Z,0
2024-03-26T02:41:19.000Z,0
2024-03-26T02:42:33.000Z,0
2024-03-26T02:43:47.000Z,0
2024-03-26T02:45:02.000Z,0
2024-03-26T02:46:16.000Z,0
2024-03-26T02:47:30.000Z,0
2024-03-26T02:49:59.000Z,0
2024-03-26T02:51:13.536Z,0
2024-03-26T02:52:27.821Z,0
2024-03-26T02:53:41.000Z,0
2024-03-26T02:54:55.000Z,0
2024-03-26T02:56:09.000Z,0
2024-03-26T02:57:24.000Z,0
2024-03-26T02:58:38.300Z,0
2024-03-26T02:59:52.000Z,0
2024-03-26T03:01:06.000Z,0
2024-03-26T03:02:21.000Z,0
2024-03-26T03:03:35.000Z,0
2024-03-26T03:04:49.000Z,0
2024-03-26T03:06:04.000Z,0
2024-03-26T03:07:18.000Z,0
2024-03-26T03:08:32.652Z,0
2024-03-26T03:09:45.000Z,0
2024-03-26T03:11:00.000Z,0
2024-03-26T03:12:14.000Z,0
2024-03-26T03:13:28.000Z,0
2024-03-26T03:14:43.000Z,0
2024-03-26T03:15:57.000Z,0
2024-03-26T03:17:11.000Z,0
2024-03-26T03:18:26.022Z,0
2024-03-26T03:19:40.000Z,0
2024-03-26T03:20:54.589Z,0
2024-03-26T03:22:08.000Z,0
2024-03-26T03:23:23.180Z,0
2024-03-26T03:24:37.000Z,0
2024-03-26T03:25:50.783Z,0
2024-03-26T03:27:05.000Z,0
2024-03-26T03:28:19.000Z,0
2024-03-26T03:29:33.000Z,0
2024-03-26T03:30:47.000Z,0
2024-03-26T03:32:02.000Z,0
2024-03-26T03:33:16.000Z,0
2024-03-26T03:34:30.000Z,0
2024-03-26T03:35:45.000Z,0
2024-03-26T03:36:59.000Z,0
2024-03-26T03:38:13.000Z,0
2024-03-26T03:39:28.000Z,0
2024-03-26T03:40:42.000Z,0
2024-03-26T03:41:56.000Z,0
2024-03-26T03:43:09.000Z,0
2024-03-26T03:44:24.000Z,0
2024-03-26T03:45:38.000Z,0
2024-03-26T03:46:52.000Z,0
2024-03-26T03:48:07.000Z,0
2024-03-26T03:49:21.000Z,0
2024-03-26T03:50:35.674Z,0
2024-03-26T03:51:49.000Z,0
2024-03-26T03:53:04.000Z,0
2024-03-26T03:54:18.000Z,0
2024-03-26T03:55:32.000Z,0
2024-03-26T03:56:47.139Z,0
2024-03-26T03:58:01.000Z,0
2024-03-26T03:59:14.000Z,0
2024-03-26T04:00:29.000Z,0
2024-03-26T04:01:43.000Z,0
2024-03-26T04:02:57.000Z,0
2024-03-26T04:04:11.000Z,0
2024-03-26T04:05:26.205Z,0
2024-03-26T04:06:40.000Z,0
2024-03-26T04:07:54.000Z,0
2024-03-26T04:09:09.000Z,0
2024-03-26T04:10:23.000Z,0
2024-03-26T04:11:37.000Z,0
2024-03-26T04:12:51.909Z,1
2024-03-26T04:14:06.000Z,0
2024-03-26T04:15:19.000Z,0
2024-03-26T04:16:33.000Z,1
2024-03-26T04:17:48.001Z,1
2024-03-26T04:19:02.294Z,0
2024-03-26T04:20:16.599Z,0
2024-03-26T04:21:30.834Z,2
2024-03-26T04:22:45.091Z,1
2024-03-26T04:23:59.365Z,0
2024-03-26T04:26:27.000Z,3
2024-03-26T04:27:42.162Z,1
2024-03-26T04:28:56.000Z,1
2024-03-26T04:30:10.000Z,1
2024-03-26T04:31:23.000Z,2
2024-03-26T04:32:38.000Z,3
2024-03-26T04:33:52.000Z,3
2024-03-26T04:35:06.602Z,4
2024-03-26T04:36:20.000Z,5
2024-03-26T04:37:35.000Z,7
2024-03-26T04:38:49.000Z,9
2024-03-26T04:40:03.000Z,12
2024-03-26T04:41:17.000Z,15
2024-03-26T04:42:32.053Z,19
2024-03-26T04:43:46.000Z,22
2024-03-26T04:45:00.512Z,26
2024-03-26T04:46:14.000Z,31
2024-03-26T04:47:29.000Z,36
2024-03-26T04:48:42.263Z,41
2024-03-26T04:49:56.486Z,46
2024-03-26T04:51:10.737Z,53
2024-03-26T04:52:24.967Z,59
2024-03-26T04:53:39.000Z,66
2024-03-26T04:54:53.000Z,71
2024-03-26T04:56:07.000Z,97
2024-03-26T04:57:21.924Z,103
2024-03-26T04:58:36.000Z,103
2024-03-26T04:59:50.000Z,106
2024-03-26T05:01:04.000Z,129
2024-03-26T05:02:18.887Z,161
2024-03-26T05:03:33.000Z,187
2024-03-26T05:04:46.380Z,214
2024-03-26T05:06:00.000Z,235
2024-03-26T05:07:14.000Z,281
2024-03-26T05:08:29.000Z,326
2024-03-26T05:09:43.328Z,350
2024-03-26T05:10:57.000Z,373
2024-03-26T05:12:11.000Z,386
2024-03-26T05:13:26.000Z,429
2024-03-26T05:14:40.000Z,484
2024-03-26T05:15:54.534Z,534
2024-03-26T05:18:23.009Z,622
2024-03-26T05:19:37.242Z,678
2024-03-26T05:20:50.505Z,748
2024-03-26T05:22:04.738Z,811
2024-03-26T05:23:19.000Z,904
2024-03-26T05:24:33.229Z,975
2024-03-26T05:25:47.000Z,1095
2024-03-26T05:27:01.702Z,1092
2024-03-26T05:28:15.951Z,1054
2024-03-26T05:29:30.000Z,1155
2024-03-26T05:30:44.000Z,1231
2024-03-26T05:31:58.000Z,1288
2024-03-26T05:33:12.000Z,1437
2024-03-26T05:34:27.127Z,1488
2024-03-26T05:35:41.000Z,1593
2024-03-26T05:36:55.000Z,1583
2024-03-26T05:38:08.000Z,1725
2024-03-26T05:39:23.000Z,1774
2024-03-26T05:40:37.000Z,1781
2024-03-26T05:41:51.586Z,1910
2024-03-26T05:43:05.000Z,2040
2024-03-26T05:45:34.302Z,2128
2024-03-26T05:46:48.541Z,2209
2024-03-26T05:48:02.792Z,2313
2024-03-26T05:49:17.020Z,2424
2024-03-26T05:50:31.270Z,2446
2024-03-26T05:51:45.503Z,2446
2024-03-26T05:52:59.734Z,2529
2024-03-26T05:54:13.000Z,2678
2024-03-26T05:55:27.000Z,2759
2024-03-26T05:56:41.482Z,2756
2024-03-26T05:57:55.000Z,2818
2024-03-26T05:59:09.000Z,2781
2024-03-26T06:01:38.000Z,3087
2024-03-26T06:02:52.000Z,3105
2024-03-26T06:04:06.917Z,3138
2024-03-26T06:05:21.000Z,3169
2024-03-26T06:06:35.000Z,2731
2024-03-26T06:07:49.000Z,1997
2024-03-26T06:09:03.000Z,3401
2024-03-26T06:10:18.000Z,10892
2024-03-26T06:11:31.000Z,12409
2024-03-26T06:13:59.000Z,15002
2024-03-26T06:15:14.000Z,13858
2024-03-26T06:16:28.000Z,16523
2024-03-26T06:17:42.568Z,14250
2024-03-26T06:18:56.801Z,14893
2024-03-26T06:20:11.000Z,14725
2024-03-26T06:21:25.000Z,20157
2024-03-26T06:22:39.521Z,19659
2024-03-26T06:23:53.000Z,77544
2024-03-26T06:26:22.224Z,79430
2024-03-26T06:27:36.000Z,76531
2024-03-26T06:28:50.000Z,76777
2024-03-26T06:30:03.000Z,76744
2024-03-26T06:31:18.000Z,72960
2024-03-26T06:32:32.000Z,14750
2024-03-26T06:33:46.000Z,8420
2024-03-26T06:35:00.000Z,75499
2024-03-26T06:36:15.000Z,29384
2024-03-26T06:37:29.386Z,17833
2024-03-26T06:38:43.640Z,8111
2024-03-26T06:39:57.000Z,6501
2024-03-26T06:41:12.000Z,6555
2024-03-26T06:43:40.597Z,6080
2024-03-26T06:44:54.000Z,5880
2024-03-26T06:46:09.000Z,5944
2024-03-26T06:47:22.329Z,6011
2024-03-26T06:48:36.000Z,6260
2024-03-26T06:49:50.000Z,6195
2024-03-26T06:51:05.000Z,5871
2024-03-26T06:52:19.000Z,4131
2024-03-26T06:53:33.000Z,4250
2024-03-26T06:54:47.000Z,7358
2024-03-26T06:56:02.003Z,19288
2024-03-26T06:57:16.000Z,74526
2024-03-26T06:58:30.000Z,23452
2024-03-26T06:59:44.701Z,76716
2024-03-26T07:00:58.000Z,77510
2024-03-26T07:02:13.000Z,77511
2024-03-26T07:03:26.000Z,78317
2024-03-26T07:04:40.000Z,78734
2024-03-26T07:05:54.000Z,81276
2024-03-26T07:07:09.000Z,78921
2024-03-26T07:09:37.641Z,82210
2024-03-26T07:10:51.880Z,82550
2024-03-26T07:12:06.109Z,83160
2024-03-26T07:13:20.354Z,82319
2024-03-26T07:14:34.588Z,81391
2024-03-26T07:15:48.831Z,77890
2024-03-26T07:17:03.000Z,78556
2024-03-26T07:18:17.000Z,80637
2024-03-26T07:19:31.000Z,80685
2024-03-26T07:20:44.000Z,79321
2024-03-26T07:21:59.000Z,83134
2024-03-26T07:23:13.000Z,82705
2024-03-26T07:25:41.000Z,83195
2024-03-26T07:28:10.000Z,82834
2024-03-26T07:29:24.000Z,80411
2024-03-26T07:30:37.000Z,78874
2024-03-26T07:31:52.000Z,78942
2024-03-26T07:33:06.000Z,80206
2024-03-26T07:34:20.000Z,77849
2024-03-26T07:35:34.000Z,77343
2024-03-26T07:36:49.056Z,77143
2024-03-26T07:40:31.778Z,77640
2024-03-26T07:41:46.010Z,78235
2024-03-26T07:43:00.262Z,80253
2024-03-26T07:44:13.517Z,77256
2024-03-26T07:45:27.000Z,75997
2024-03-26T07:46:42.000Z,79067
2024-03-26T07:49:10.476Z,75571
2024-03-26T07:50:23.000Z,74992
2024-03-26T07:51:37.959Z,74263
2024-03-26T07:52:52.000Z,80031
2024-03-26T07:54:06.000Z,78204
2024-03-26T07:55:20.000Z,79247
2024-03-26T07:56:34.926Z,77567
2024-03-26T07:57:49.000Z,76902
2024-03-26T07:59:03.374Z,75851
2024-03-26T08:00:17.000Z,77224
2024-03-26T08:01:31.865Z,77258
2024-03-26T08:02:46.000Z,79102
2024-03-26T08:04:00.354Z,77784
2024-03-26T08:05:14.000Z,80140
2024-03-26T08:06:28.944Z,73053
2024-03-26T08:07:42.000Z,27171
2024-03-26T08:08:56.000Z,79956
2024-03-26T08:10:09.716Z,79812
2024-03-26T08:11:23.000Z,77391
2024-03-26T08:12:38.192Z,76893
2024-03-26T08:13:52.416Z,73462
2024-03-26T08:15:05.000Z,26761
2024-03-26T08:16:19.925Z,75495
2024-03-26T08:17:34.000Z,75945
2024-03-26T08:18:48.395Z,76729
2024-03-26T08:20:02.000Z,73555
2024-03-26T08:21:16.876Z,26938
2024-03-26T08:22:30.131Z,75315
2024-03-26T08:23:44.364Z,74486
2024-03-26T08:24:58.000Z,74410
2024-03-26T08:26:11.000Z,74173
2024-03-26T08:27:26.000Z,31889
2024-03-26T08:28:40.332Z,33653
2024-03-26T08:29:54.000Z,26153
2024-03-26T08:31:08.000Z,26939
2024-03-26T08:32:23.047Z,27297
2024-03-26T08:33:37.000Z,27857
2024-03-26T08:34:51.000Z,74315
2024-03-26T08:36:05.000Z,73545
2024-03-26T08:37:20.000Z,30362
2024-03-26T08:38:34.254Z,22092
2024-03-26T08:39:48.489Z,23827
2024-03-26T08:41:02.727Z,24496
2024-03-26T08:42:17.000Z,28744
2024-03-26T08:43:31.000Z,26702
2024-03-26T08:44:45.000Z,30172
2024-03-26T08:45:59.677Z,25329
2024-03-26T08:47:13.932Z,25879
2024-03-26T08:48:28.161Z,22975
2024-03-26T08:49:42.405Z,23079
2024-03-26T08:50:56.635Z,24544
2024-03-26T08:52:09.000Z,24474
2024-03-26T08:54:38.000Z,21869
2024-03-26T08:55:52.000Z,18609
2024-03-26T08:57:06.000Z,18003
2024-03-26T08:58:21.085Z,21410
2024-03-26T08:59:35.000Z,21856
2024-03-26T09:00:49.000Z,21542
2024-03-26T09:03:18.041Z,18603
2024-03-26T09:04:32.000Z,16615
2024-03-26T09:07:00.000Z,17630
2024-03-26T09:08:15.000Z,22007
2024-03-26T09:09:29.234Z,18652
2024-03-26T09:10:43.000Z,16458
2024-03-26T09:11:57.000Z,19399
2024-03-26T09:13:11.000Z,25296
2024-03-26T09:14:26.000Z,20559
2024-03-26T09:15:40.000Z,9910
2024-03-26T09:16:54.672Z,6695
2024-03-26T09:18:07.927Z,6108
2024-03-26T09:19:21.181Z,5772
2024-03-26T09:20:35.000Z,5621
2024-03-26T09:21:49.000Z,5491
2024-03-26T09:23:03.000Z,5370
2024-03-26T09:24:18.000Z,5262
2024-03-26T09:25:32.000Z,5198
2024-03-26T09:26:46.000Z,5192
2024-03-26T09:28:00.859Z,5009
2024-03-26T09:29:15.000Z,4990
2024-03-26T09:30:29.324Z,4961
2024-03-26T09:31:43.000Z,4927
2024-03-26T09:34:12.000Z,4912
2024-03-26T09:35:26.399Z,4852
2024-03-26T09:37:54.878Z,4746
2024-03-26T09:39:08.152Z,4728
2024-03-26T09:40:22.000Z,4667
2024-03-26T09:41:36.000Z,4606
2024-03-26T09:42:50.987Z,4628
2024-03-26T09:45:19.000Z,4621
2024-03-26T09:46:33.696Z,4616
2024-03-26T09:47:47.942Z,4573
2024-03-26T09:50:16.000Z,4502
2024-03-26T09:51:30.000Z,4494
2024-03-26T09:52:44.000Z,4474
2024-03-26T09:53:59.000Z,4433
2024-03-26T09:55:13.000Z,4332
2024-03-26T09:56:27.000Z,4401
2024-03-26T09:57:41.000Z,4397
2024-03-26T09:58:55.000Z,4374
2024-03-26T10:00:09.000Z,4383
2024-03-26T10:01:23.000Z,4329
2024-03-26T10:02:37.000Z,4288
2024-03-26T10:03:52.000Z,4282
2024-03-26T10:05:06.288Z,4261
2024-03-26T10:06:20.000Z,4238
2024-03-26T10:07:34.000Z,4193
2024-03-26T10:08:49.009Z,4170
2024-03-26T10:10:03.000Z,4106
2024-03-26T10:11:17.000Z,4095
2024-03-26T10:12:31.000Z,4052
2024-03-26T10:13:45.000Z,3970
2024-03-26T10:14:59.000Z,3962
2024-03-26T10:16:13.000Z,3973
2024-03-26T10:17:27.708Z,3969
2024-03-26T10:18:41.000Z,3904
2024-03-26T10:19:55.000Z,3863
2024-03-26T10:21:09.000Z,3839
2024-03-26T10:22:23.000Z,3821
2024-03-26T10:23:37.000Z,3779
2024-03-26T10:24:52.000Z,3770
2024-03-26T10:26:05.424Z,3706
2024-03-26T10:27:19.000Z,3683
2024-03-26T10:28:33.000Z,3638
2024-03-26T10:29:48.000Z,3628
2024-03-26T10:31:01.000Z,3608
2024-03-26T10:32:15.000Z,3560
2024-03-26T10:33:29.855Z,3536
2024-03-26T10:34:44.100Z,3528
2024-03-26T10:35:58.000Z,3465
2024-03-26T10:37:12.578Z,3467
2024-03-26T10:38:26.817Z,3479
2024-03-26T10:39:41.067Z,3463
2024-03-26T10:40:55.303Z,3444
2024-03-26T10:42:09.544Z,3479
2024-03-26T10:43:23.000Z,3526
2024-03-26T10:44:38.000Z,3597
2024-03-26T10:45:52.000Z,3650
2024-03-26T10:47:06.617Z,3728
2024-03-26T10:48:20.000Z,3830
2024-03-26T10:49:35.000Z,3891
2024-03-26T10:50:49.000Z,3979
2024-03-26T10:52:03.560Z,3979
2024-03-26T10:53:17.799Z,4015
2024-03-26T10:54:32.000Z,4061
2024-03-26T10:55:46.000Z,4061
2024-03-26T10:57:00.000Z,4086
2024-03-26T10:58:14.762Z,4118
2024-03-26T10:59:28.992Z,4124
2024-03-26T11:00:43.000Z,4091
2024-03-26T11:01:57.000Z,4073
2024-03-26T11:03:11.726Z,3998
2024-03-26T11:04:25.000Z,3926
2024-03-26T11:05:39.210Z,3905
2024-03-26T11:08:07.683Z,3876
2024-03-26T11:09:21.919Z,3860
2024-03-26T11:10:36.178Z,3843
2024-03-26T11:13:04.000Z,3822
2024-03-26T11:14:18.000Z,3816
2024-03-26T11:16:47.000Z,3862
2024-03-26T11:18:01.000Z,3893
2024-03-26T11:19:15.844Z,3872
2024-03-26T11:20:29.000Z,3888
2024-03-26T11:21:43.341Z,3806
2024-03-26T11:22:57.000Z,3860
2024-03-26T11:24:11.810Z,3875
2024-03-26T11:25:25.000Z,3811
2024-03-26T11:26:39.000Z,3853
2024-03-26T11:27:53.000Z,3996
2024-03-26T11:29:07.774Z,3684
2024-03-26T11:30:22.000Z,3750
2024-03-26T11:31:36.271Z,3833
2024-03-26T11:32:50.495Z,3752
2024-03-26T11:34:03.767Z,3763
2024-03-26T11:35:18.000Z,3820
2024-03-26T11:36:32.238Z,3945
2024-03-26T11:37:46.482Z,4066
2024-03-26T11:39:00.724Z,4124
2024-03-26T11:40:13.000Z,4159
2024-03-26T11:41:28.000Z,4244
2024-03-26T11:43:56.687Z,4209
2024-03-26T11:45:10.000Z,4188
2024-03-26T11:46:25.165Z,4141
2024-03-26T11:47:39.000Z,4136
2024-03-26T11:48:53.645Z,4162
2024-03-26T11:50:07.000Z,4188
2024-03-26T11:51:22.115Z,4180
2024-03-26T11:52:36.350Z,4206
2024-03-26T11:55:04.837Z,4122
2024-03-26T11:56:19.067Z,4066
2024-03-26T11:57:33.324Z,4002
2024-03-26T12:01:16.000Z,3775
2024-03-26T12:02:30.000Z,3712
2024-03-26T12:03:44.520Z,3661
2024-03-26T12:04:58.000Z,3543
2024-03-26T12:06:13.000Z,3470
2024-03-26T12:07:27.000Z,3423
2024-03-26T12:08:41.457Z,3421
2024-03-26T12:09:54.000Z,3323
2024-03-26T12:11:08.000Z,3306
2024-03-26T12:12:23.000Z,3326
2024-03-26T12:13:37.000Z,3323
2024-03-26T12:14:51.000Z,3295
2024-03-26T12:16:05.000Z,3283
2024-03-26T12:17:19.174Z,3252
2024-03-26T12:18:33.412Z,3247
2024-03-26T12:19:47.000Z,3235
2024-03-26T12:21:01.895Z,3200
2024-03-26T12:22:16.132Z,3229
2024-03-26T12:24:44.607Z,3243
2024-03-26T12:25:58.000Z,3270
2024-03-26T12:27:13.097Z,3278
2024-03-26T12:28:27.326Z,3332
2024-03-26T12:29:41.000Z,3389
2024-03-26T12:30:55.000Z,3463
2024-03-26T12:32:10.000Z,3568
2024-03-26T12:33:24.000Z,3603
2024-03-26T12:35:51.000Z,3778
2024-03-26T12:37:06.000Z,3860
2024-03-26T12:38:20.000Z,3977
2024-03-26T12:39:34.000Z,4054
2024-03-26T12:40:48.000Z,4114
2024-03-26T12:42:02.000Z,4158
2024-03-26T12:43:17.000Z,4257
2024-03-26T12:44:31.438Z,4234
2024-03-26T12:45:45.000Z,4374
2024-03-26T12:46:59.000Z,4411
2024-03-26T12:48:14.000Z,4353
2024-03-26T12:49:28.000Z,4375
2024-03-26T12:50:42.642Z,4390
2024-03-26T12:51:56.871Z,4386
2024-03-26T12:53:11.120Z,4372
2024-03-26T12:54:24.000Z,4348
2024-03-26T12:55:38.000Z,4304
2024-03-26T12:56:51.000Z,4287
2024-03-26T12:58:06.000Z,4223
2024-03-26T12:59:20.000Z,4165
2024-03-26T13:00:34.585Z,4076
2024-03-26T13:01:48.000Z,4022
2024-03-26T13:03:03.000Z,3942
2024-03-26T13:04:17.000Z,3858
2024-03-26T13:05:31.000Z,3771
2024-03-26T13:06:45.000Z,3728
2024-03-26T13:08:00.014Z,3808
2024-03-26T13:09:14.000Z,3705
2024-03-26T13:10:28.504Z,3535
2024-03-26T13:11:42.000Z,3458
2024-03-26T13:12:57.000Z,3418
2024-03-26T13:14:10.000Z,3323
2024-03-26T13:15:24.000Z,3301
2024-03-26T13:16:38.707Z,3174
2024-03-26T13:17:52.000Z,3227
2024-03-26T13:19:07.000Z,3193
2024-03-26T13:20:21.000Z,3215
2024-03-26T13:21:35.000Z,3155
2024-03-26T13:22:49.000Z,3131
2024-03-26T13:24:04.000Z,3194
2024-03-26T13:25:18.000Z,3231
2024-03-26T13:26:32.000Z,3279
2024-03-26T13:27:46.000Z,3298
2024-03-26T13:29:01.000Z,3352
2024-03-26T13:30:15.000Z,3429
2024-03-26T13:31:28.000Z,3372
2024-03-26T13:32:42.000Z,3337
2024-03-26T13:33:57.000Z,3308
2024-03-26T13:35:11.301Z,3148
2024-03-26T13:36:25.000Z,2957
2024-03-26T13:37:39.000Z,2946
2024-03-26T13:38:54.000Z,2870
2024-03-26T13:40:08.000Z,2888
2024-03-26T13:41:22.000Z,2839
2024-03-26T13:42:36.000Z,2808
2024-03-26T13:43:51.000Z,2800
2024-03-26T13:45:05.000Z,2781
2024-03-26T13:46:19.000Z,2799
2024-03-26T13:47:33.000Z,2811
2024-03-26T13:48:47.000Z,2840
2024-03-26T13:50:02.000Z,2861
2024-03-26T13:51:16.000Z,2890
2024-03-26T13:52:30.000Z,2885
2024-03-26T13:53:43.000Z,2888
2024-03-26T13:54:58.000Z,2874
2024-03-26T13:56:12.000Z,2870
2024-03-26T13:57:26.000Z,2861
2024-03-26T13:58:40.862Z,2892
2024-03-26T13:59:55.099Z,2896
2024-03-26T14:01:09.328Z,2882
2024-03-26T14:02:23.581Z,2862
2024-03-26T14:04:52.059Z,2863
2024-03-26T14:06:06.299Z,2856
2024-03-26T14:07:20.528Z,2875
2024-03-26T14:08:34.000Z,2872
2024-03-26T14:12:17.000Z,2964
2024-03-26T14:13:31.994Z,2980
2024-03-26T14:14:46.342Z,3020
2024-03-26T14:16:00.591Z,3056
2024-03-26T14:19:43.300Z,3140
2024-03-26T14:20:57.000Z,3171
2024-03-26T14:22:11.000Z,3218
2024-03-26T14:23:26.014Z,3259
2024-03-26T14:24:40.249Z,3291
2024-03-26T14:27:08.731Z,3349
2024-03-26T14:28:22.970Z,3369
2024-03-26T14:29:37.207Z,3397
2024-03-26T14:32:05.680Z,3387
2024-03-26T14:34:34.160Z,3340
2024-03-26T14:35:48.406Z,3309
2024-03-26T14:38:17.000Z,3273
2024-03-26T14:39:31.000Z,3251
2024-03-26T14:41:59.747Z,3207
2024-03-26T14:43:12.994Z,3187
2024-03-26T14:44:27.232Z,3174
2024-03-26T14:45:40.505Z,3152
2024-03-26T14:46:54.725Z,3127
2024-03-26T14:48:08.981Z,3111
2024-03-26T14:49:23.203Z,3084
2024-03-26T14:53:05.931Z,3022
2024-03-26T14:54:20.000Z,2994
2024-03-26T14:55:34.402Z,2968
2024-03-26T14:56:48.635Z,2952
2024-03-26T14:58:02.875Z,2933
2024-03-26T14:59:17.131Z,2903
2024-03-26T15:00:31.353Z,2883
2024-03-26T15:01:44.617Z,2830
2024-03-26T15:02:58.000Z,2786
2024-03-26T15:04:13.000Z,2736
2024-03-26T15:05:27.339Z,2677
2024-03-26T15:06:41.577Z,2624
2024-03-26T15:07:55.807Z,2575
2024-03-26T15:09:10.000Z,2526
2024-03-26T15:10:24.000Z,2478
2024-03-26T15:11:38.000Z,2446
2024-03-26T15:12:52.757Z,2408
2024-03-26T15:14:06.996Z,2384
2024-03-26T15:15:21.000Z,2369
2024-03-26T15:16:35.484Z,2336
2024-03-26T15:17:48.000Z,2317
2024-03-26T15:19:02.000Z,2290
2024-03-26T15:20:16.235Z,2263
2024-03-26T15:21:30.467Z,2238
2024-03-26T15:23:58.948Z,2191
2024-03-26T15:26:27.423Z,2159
2024-03-26T15:27:41.674Z,2140
2024-03-26T15:28:55.000Z,2112
2024-03-26T15:30:10.000Z,2086
2024-03-26T15:31:24.000Z,2063
2024-03-26T15:32:38.623Z,2028
2024-03-26T15:33:52.000Z,2008
2024-03-26T15:35:07.093Z,1984
2024-03-26T15:36:21.000Z,1959
2024-03-26T15:37:35.000Z,1932
2024-03-26T15:38:49.000Z,1920
2024-03-26T15:40:04.000Z,1908
2024-03-26T15:41:18.000Z,1889
2024-03-26T15:42:32.545Z,1872
2024-03-26T15:43:46.000Z,1870
2024-03-26T15:45:01.000Z,1857
2024-03-26T15:46:15.000Z,1871
2024-03-26T15:47:29.000Z,1867
2024-03-26T15:48:43.000Z,1869
2024-03-26T15:51:12.325Z,1889
2024-03-26T15:52:26.572Z,1895
2024-03-26T15:53:40.801Z,1913
2024-03-26T15:56:09.000Z,1954
2024-03-26T15:57:23.000Z,1967
2024-03-26T15:58:37.000Z,1962
2024-03-26T15:59:52.000Z,1917
2024-03-26T16:01:06.000Z,1910
2024-03-26T16:02:19.000Z,1892
2024-03-26T16:03:33.725Z,1863
2024-03-26T16:04:47.969Z,1812
2024-03-26T16:06:02.207Z,1765
2024-03-26T16:07:16.000Z,1721
2024-03-26T16:08:30.000Z,1676
2024-03-26T16:10:59.164Z,1589
2024-03-26T16:12:13.403Z,1552
2024-03-26T16:13:26.662Z,1513
2024-03-26T16:14:40.906Z,1481
2024-03-26T16:15:55.261Z,1450
2024-03-26T16:17:09.500Z,1417
2024-03-26T16:18:23.735Z,1397
2024-03-26T16:19:37.981Z,1374
2024-03-26T16:20:52.000Z,1350
2024-03-26T16:22:06.000Z,1330
2024-03-26T16:23:20.000Z,1314
2024-03-26T16:24:34.000Z,1299
2024-03-26T16:25:49.000Z,1280
2024-03-26T16:27:03.000Z,1253
2024-03-26T16:28:16.000Z,1238
2024-03-26T16:29:30.922Z,1208
2024-03-26T16:30:45.000Z,1181
2024-03-26T16:31:59.000Z,1154
2024-03-26T16:33:12.000Z,1130
2024-03-26T16:35:41.136Z,1078
2024-03-26T16:36:55.373Z,1053
2024-03-26T16:38:09.000Z,1020
2024-03-26T16:40:38.082Z,964
2024-03-26T16:41:52.330Z,946
2024-03-26T16:43:06.000Z,924
2024-03-26T16:44:20.000Z,905
2024-03-26T16:45:35.000Z,903
2024-03-26T16:46:48.000Z,891
2024-03-26T16:48:02.000Z,873
2024-03-26T16:49:15.795Z,867
2024-03-26T16:50:30.000Z,857
2024-03-26T16:51:44.000Z,844
2024-03-26T16:52:58.000Z,829
2024-03-26T16:54:12.000Z,814
2024-03-26T16:55:26.000Z,793
2024-03-26T16:56:41.000Z,767
2024-03-26T16:57:55.472Z,750
2024-03-26T17:00:22.976Z,708
2024-03-26T17:02:51.000Z,653
2024-03-26T17:04:05.000Z,631
2024-03-26T17:05:19.000Z,609
2024-03-26T17:06:33.000Z,579
2024-03-26T17:07:47.000Z,554
2024-03-26T17:09:01.000Z,529
2024-03-26T17:10:15.000Z,507
2024-03-26T17:11:30.000Z,483
2024-03-26T17:12:44.000Z,462
2024-03-26T17:13:58.000Z,432
2024-03-26T17:15:12.000Z,403
2024-03-26T17:16:27.000Z,379
2024-03-26T17:17:41.000Z,358
2024-03-26T17:18:55.559Z,331
2024-03-26T17:20:09.000Z,307
2024-03-26T17:21:24.000Z,283
2024-03-26T17:22:38.000Z,263
2024-03-26T17:25:05.000Z,226
2024-03-26T17:26:20.015Z,209
2024-03-26T17:27:34.000Z,190
2024-03-26T17:28:48.000Z,171
2024-03-26T17:30:01.000Z,150
2024-03-26T17:31:15.000Z,133
2024-03-26T17:32:29.222Z,120
2024-03-26T17:33:43.455Z,107
2024-03-26T17:34:57.000Z,95
2024-03-26T17:36:11.000Z,81
2024-03-26T17:37:26.173Z,72
2024-03-26T17:38:40.000Z,57
2024-03-26T17:39:54.000Z,51
2024-03-26T17:41:08.893Z,41
2024-03-26T17:42:23.000Z,37
2024-03-26T17:43:36.400Z,29
2024-03-26T17:44:50.636Z,25
2024-03-26T17:46:04.873Z,22
2024-03-26T17:47:19.229Z,17
2024-03-26T17:49:47.000Z,11
2024-03-26T17:51:01.956Z,10
2024-03-26T17:52:16.000Z,6
2024-03-26T17:53:30.000Z,6
2024-03-26T17:54:44.000Z,5
2024-03-26T17:55:58.915Z,2
2024-03-26T17:57:13.000Z,2
2024-03-26T17:58:27.379Z,2
2024-03-26T17:59:41.000Z,1
2024-03-26T18:00:55.000Z,1
2024-03-26T18:02:10.000Z,1
2024-03-26T18:03:23.000Z,0
2024-03-26T18:05:52.000Z,0